Terminal Aerodrome Forecast
Issued by NWS El Paso, TX

Home | Current Version | Previous Version | Text Only | Print | Product List | Glossary On
Versions: 1 2 3 4 5 6 7 8 9 10 11 12 13 14 15 16
000
FTUS44 KEPZ 040500 RRA
TAFELP
TAF
KELP 040543Z 0406/0506 23011KT P6SM -SHRA SCT050 BKN120 BKN250
     FM040900 27011KT P6SM VCSH SCT030 BKN060 BKN100
     FM041800 28012G22KT P6SM VCSH SCT050 BKN080 BKN140=

USA.gov is the U.S. government's official web portal to all federal, state and local government web resources and services.